sensor_id;sensor_type;location;lat;lon;timestamp;pressure;altitude;pressure_sealevel;temperature;humidity
61697;BME280;47610;52.252;20.922;2023-01-25T00:01:11;102358.95;;;1.77;100.00
61697;BME280;47610;52.252;20.922;2023-01-25T00:13:32;102361.69;;;1.70;100.00
61697;BME280;47610;52.252;20.922;2023-01-25T00:18:36;102363.96;;;1.64;100.00
61697;BME280;47610;52.252;20.922;2023-01-25T00:23:40;102366.16;;;1.60;100.00
61697;BME280;47610;52.252;20.922;2023-01-25T00:28:52;102355.27;;;1.56;100.00
61697;BME280;47610;52.252;20.922;2023-01-25T00:34:18;102339.66;;;1.55;100.00
61697;BME280;47610;52.252;20.922;2023-01-25T00:39:33;102342.02;;;1.55;100.00
61697;BME280;47610;52.252;20.922;2023-01-25T00:44:38;102336.16;;;1.48;100.00
61697;BME280;47610;52.252;20.922;2023-01-25T00:49:43;102338.15;;;1.42;100.00
61697;BME280;47610;52.252;20.922;2023-01-25T00:54:47;102325.05;;;1.41;100.00
61697;BME280;47610;52.252;20.922;2023-01-25T00:59:54;102320.70;;;1.36;100.00
61697;BME280;47610;52.252;20.922;2023-01-25T01:04:58;102317.83;;;1.34;100.00
61697;BME280;47610;52.252;20.922;2023-01-25T01:10:11;102323.27;;;1.29;100.00
61697;BME280;47610;52.252;20.922;2023-01-25T01:15:16;102319.53;;;1.25;100.00
61697;BME280;47610;52.252;20.922;2023-01-25T01:20:20;102315.68;;;1.20;100.00
61697;BME280;47610;52.252;20.922;2023-01-25T01:25:25;102310.92;;;1.14;100.00
61697;BME280;47610;52.252;20.922;2023-01-25T01:30:28;102316.31;;;1.10;100.00
61697;BME280;47610;52.252;20.922;2023-01-25T01:35:33;102317.92;;;1.06;100.00
61697;BME280;47610;52.252;20.922;2023-01-25T01:40:36;102310.66;;;1.05;100.00
61697;BME280;47610;52.252;20.922;2023-01-25T01:45:57;102302.19;;;1.03;100.00
61697;BME280;47610;52.252;20.922;2023-01-25T01:51:09;102299.44;;;1.02;100.00
61697;BME280;47610;52.252;20.922;2023-01-25T01:56:20;102297.71;;;0.99;100.00
61697;BME280;47610;52.252;20.922;2023-01-25T02:01:27;102302.24;;;0.96;100.00
61697;BME280;47610;52.252;20.922;2023-01-25T02:06:38;102301.49;;;0.95;100.00
61697;BME280;47610;52.252;20.922;2023-01-25T02:11:45;102293.83;;;0.93;100.00
61697;BME280;47610;52.252;20.922;2023-01-25T02:16:51;102288.56;;;0.92;100.00
61697;BME280;47610;52.252;20.922;2023-01-25T02:21:53;102282.72;;;0.87;100.00
61697;BME280;47610;52.252;20.922;2023-01-25T02:32:18;102273.70;;;0.81;100.00
61697;BME280;47610;52.252;20.922;2023-01-25T02:37:22;102276.55;;;0.76;100.00
61697;BME280;47610;52.252;20.922;2023-01-25T02:42:26;102271.60;;;0.72;100.00
61697;BME280;47610;52.252;20.922;2023-01-25T02:47:32;102267.73;;;0.69;100.00
61697;BME280;47610;52.252;20.922;2023-01-25T02:52:35;102264.03;;;0.68;100.00
61697;BME280;47610;52.252;20.922;2023-01-25T02:57:40;102262.10;;;0.69;100.00
61697;BME280;47610;52.252;20.922;2023-01-25T03:02:44;102261.62;;;0.67;100.00
61697;BME280;47610;52.252;20.922;2023-01-25T03:07:48;102253.98;;;0.64;100.00
61697;BME280;47610;52.252;20.922;2023-01-25T03:12:51;102241.68;;;0.60;100.00
61697;BME280;47610;52.252;20.922;2023-01-25T03:17:58;102227.10;;;0.58;100.00
61697;BME280;47610;52.252;20.922;2023-01-25T03:23:02;102226.92;;;0.56;100.00
61697;BME280;47610;52.252;20.922;2023-01-25T03:28:05;102223.63;;;0.54;100.00
61697;BME280;47610;52.252;20.922;2023-01-25T03:33:09;102220.61;;;0.53;100.00
61697;BME280;47610;52.252;20.922;2023-01-25T03:38:12;102213.13;;;0.52;100.00
61697;BME280;47610;52.252;20.922;2023-01-25T03:43:17;102206.13;;;0.55;100.00
61697;BME280;47610;52.252;20.922;2023-01-25T03:48:22;102205.91;;;0.52;100.00
61697;BME280;47610;52.252;20.922;2023-01-25T03:53:29;102195.73;;;0.48;100.00
61697;BME280;47610;52.252;20.922;2023-01-25T03:58:34;102207.74;;;0.43;100.00
61697;BME280;47610;52.252;20.922;2023-01-25T04:03:39;102191.30;;;0.40;100.00
61697;BME280;47610;52.252;20.922;2023-01-25T04:08:46;102192.55;;;0.38;100.00
61697;BME280;47610;52.252;20.922;2023-01-25T04:13:50;102192.17;;;0.35;100.00
61697;BME280;47610;52.252;20.922;2023-01-25T04:18:53;102188.55;;;0.36;100.00
61697;BME280;47610;52.252;20.922;2023-01-25T04:23:57;102188.69;;;0.34;100.00
61697;BME280;47610;52.252;20.922;2023-01-25T04:29:04;102189.08;;;0.32;100.00
61697;BME280;47610;52.252;20.922;2023-01-25T04:34:09;102180.83;;;0.28;100.00
61697;BME280;47610;52.252;20.922;2023-01-25T04:39:10;102181.02;;;0.27;100.00
61697;BME280;47610;52.252;20.922;2023-01-25T04:52:39;102173.58;;;0.13;100.00
61697;BME280;47610;52.252;20.922;2023-01-25T04:57:42;102179.73;;;0.05;100.00
61697;BME280;47610;52.252;20.922;2023-01-25T05:02:48;102179.81;;;0.00;100.00
61697;BME280;47610;52.252;20.922;2023-01-25T05:07:51;102178.94;;;0.00;100.00
61697;BME280;47610;52.252;20.922;2023-01-25T05:12:55;102180.95;;;-0.03;100.00
61697;BME280;47610;52.252;20.922;2023-01-25T05:17:58;102180.85;;;-0.08;100.00
61697;BME280;47610;52.252;20.922;2023-01-25T05:23:02;102178.48;;;-0.09;100.00
61697;BME280;47610;52.252;20.922;2023-01-25T05:28:08;102171.31;;;-0.11;100.00
61697;BME280;47610;52.252;20.922;2023-01-25T05:33:13;102168.67;;;-0.14;100.00
61697;BME280;47610;52.252;20.922;2023-01-25T05:38:16;102168.36;;;-0.14;100.00
61697;BME280;47610;52.252;20.922;2023-01-25T05:43:19;102169.11;;;-0.19;100.00
61697;BME280;47610;52.252;20.922;2023-01-25T05:48:25;102162.33;;;-0.24;100.00
61697;BME280;47610;52.252;20.922;2023-01-25T05:53:30;102159.83;;;-0.27;100.00
61697;BME280;47610;52.252;20.922;2023-01-25T05:58:34;102155.70;;;-0.35;100.00
61697;BME280;47610;52.252;20.922;2023-01-25T06:03:38;102148.13;;;-0.40;100.00
61697;BME280;47610;52.252;20.922;2023-01-25T06:08:43;102144.43;;;-0.41;100.00
61697;BME280;47610;52.252;20.922;2023-01-25T06:13:49;102142.29;;;-0.43;100.00
61697;BME280;47610;52.252;20.922;2023-01-25T06:18:55;102132.06;;;-0.47;100.00
61697;BME280;47610;52.252;20.922;2023-01-25T06:23:58;102130.69;;;-0.48;100.00
61697;BME280;47610;52.252;20.922;2023-01-25T06:29:06;102136.98;;;-0.47;100.00
61697;BME280;47610;52.252;20.922;2023-01-25T06:34:09;102140.47;;;-0.48;100.00
61697;BME280;47610;52.252;20.922;2023-01-25T06:39:15;102141.55;;;-0.48;100.00
61697;BME280;47610;52.252;20.922;2023-01-25T06:44:18;102134.34;;;-0.44;100.00
61697;BME280;47610;52.252;20.922;2023-01-25T06:49:22;102130.42;;;-0.41;100.00
61697;BME280;47610;52.252;20.922;2023-01-25T06:54:28;102130.04;;;-0.39;100.00
61697;BME280;47610;52.252;20.922;2023-01-25T06:59:33;102121.98;;;-0.40;100.00
61697;BME280;47610;52.252;20.922;2023-01-25T07:12:30;102116.90;;;-0.23;100.00
61697;BME280;47610;52.252;20.922;2023-01-25T07:17:32;102104.88;;;-0.25;100.00
61697;BME280;47610;52.252;20.922;2023-01-25T07:22:36;102105.88;;;-0.28;100.00
61697;BME280;47610;52.252;20.922;2023-01-25T07:27:40;102105.66;;;-0.29;100.00
61697;BME280;47610;52.252;20.922;2023-01-25T07:32:43;102104.96;;;-0.32;100.00
61697;BME280;47610;52.252;20.922;2023-01-25T07:37:46;102098.83;;;-0.36;100.00
61697;BME280;47610;52.252;20.922;2023-01-25T07:42:51;102099.52;;;-0.36;100.00
61697;BME280;47610;52.252;20.922;2023-01-25T07:47:57;102094.04;;;-0.35;100.00
61697;BME280;47610;52.252;20.922;2023-01-25T07:53:00;102094.58;;;-0.33;100.00
61697;BME280;47610;52.252;20.922;2023-01-25T07:58:03;102090.06;;;-0.30;100.00
61697;BME280;47610;52.252;20.922;2023-01-25T08:03:07;102086.98;;;-0.30;100.00
61697;BME280;47610;52.252;20.922;2023-01-25T08:08:11;102091.52;;;-0.25;100.00
61697;BME280;47610;52.252;20.922;2023-01-25T08:13:16;102083.80;;;-0.25;100.00
61697;BME280;47610;52.252;20.922;2023-01-25T08:18:18;102087.36;;;-0.21;100.00
61697;BME280;47610;52.252;20.922;2023-01-25T08:23:21;102086.52;;;-0.20;100.00
61697;BME280;47610;52.252;20.922;2023-01-25T08:28:24;102089.08;;;-0.14;100.00
61697;BME280;47610;52.252;20.922;2023-01-25T08:33:31;102074.33;;;-0.06;100.00
61697;BME280;47610;52.252;20.922;2023-01-25T08:38:34;102066.85;;;0.02;100.00
61697;BME280;47610;52.252;20.922;2023-01-25T08:43:38;102061.56;;;0.12;100.00
61697;BME280;47610;52.252;20.922;2023-01-25T08:48:42;102059.09;;;0.15;100.00
61697;BME280;47610;52.252;20.922;2023-01-25T08:53:45;102058.70;;;0.17;100.00
61697;BME280;47610;52.252;20.922;2023-01-25T08:58:50;102059.67;;;0.19;100.00
61697;BME280;47610;52.252;20.922;2023-01-25T09:03:57;102054.83;;;0.18;100.00
61697;BME280;47610;52.252;20.922;2023-01-25T09:09:01;102052.05;;;0.17;100.00
61697;BME280;47610;52.252;20.922;2023-01-25T09:14:07;102046.34;;;0.18;100.00
61697;BME280;47610;52.252;20.922;2023-01-25T09:19:09;102043.98;;;0.23;100.00
61697;BME280;47610;52.252;20.922;2023-01-25T09:31:40;102033.18;;;0.30;100.00
61697;BME280;47610;52.252;20.922;2023-01-25T09:36:44;102027.52;;;0.32;100.00
61697;BME280;47610;52.252;20.922;2023-01-25T09:47:38;102002.69;;;0.49;100.00
61697;BME280;47610;52.252;20.922;2023-01-25T09:58:23;101989.00;;;0.58;100.00
61697;BME280;47610;52.252;20.922;2023-01-25T10:03:32;101987.64;;;0.57;100.00
61697;BME280;47610;52.252;20.922;2023-01-25T10:08:46;101983.14;;;0.59;100.00
61697;BME280;47610;52.252;20.922;2023-01-25T10:19:32;101974.98;;;0.77;100.00
61697;BME280;47610;52.252;20.922;2023-01-25T10:24:57;101969.10;;;0.84;100.00
61697;BME280;47610;52.252;20.922;2023-01-25T10:30:18;101961.37;;;0.87;100.00
61697;BME280;47610;52.252;20.922;2023-01-25T10:35:25;101954.70;;;0.89;100.00
61697;BME280;47610;52.252;20.922;2023-01-25T10:40:38;101940.91;;;0.96;100.00
61697;BME280;47610;52.252;20.922;2023-01-25T10:45:44;101927.28;;;0.98;100.00
61697;BME280;47610;52.252;20.922;2023-01-25T10:50:52;101920.12;;;0.94;100.00
61697;BME280;47610;52.252;20.922;2023-01-25T10:56:20;101919.02;;;0.90;100.00
61697;BME280;47610;52.252;20.922;2023-01-25T11:01:32;101915.19;;;0.85;100.00
61697;BME280;47610;52.252;20.922;2023-01-25T11:06:37;101913.17;;;0.82;100.00
61697;BME280;47610;52.252;20.922;2023-01-25T11:11:41;101904.34;;;0.75;100.00
61697;BME280;47610;52.252;20.922;2023-01-25T11:16:47;101896.23;;;0.65;100.00
61697;BME280;47610;52.252;20.922;2023-01-25T11:21:53;101881.14;;;0.60;100.00
61697;BME280;47610;52.252;20.922;2023-01-25T11:27:17;101873.02;;;0.55;100.00
61697;BME280;47610;52.252;20.922;2023-01-25T11:32:23;101873.11;;;0.50;100.00
61697;BME280;47610;52.252;20.922;2023-01-25T11:37:41;101861.12;;;0.44;100.00
61697;BME280;47610;52.252;20.922;2023-01-25T11:42:58;101864.81;;;0.45;100.00
61697;BME280;47610;52.252;20.922;2023-01-25T11:48:26;101862.09;;;0.51;100.00
61697;BME280;47610;52.252;20.922;2023-01-25T11:53:54;101856.02;;;0.52;100.00
61697;BME280;47610;52.252;20.922;2023-01-25T11:59:13;101847.60;;;0.50;100.00
61697;BME280;47610;52.252;20.922;2023-01-25T12:04:44;101837.30;;;0.50;100.00
61697;BME280;47610;52.252;20.922;2023-01-25T12:10:03;101822.98;;;0.52;100.00
61697;BME280;47610;52.252;20.922;2023-01-25T12:15:35;101811.30;;;0.56;100.00
61697;BME280;47610;52.252;20.922;2023-01-25T12:21:00;101805.71;;;0.56;100.00
61697;BME280;47610;52.252;20.922;2023-01-25T12:26:15;101797.48;;;0.52;100.00
61697;BME280;47610;52.252;20.922;2023-01-25T12:38:05;101783.61;;;0.52;100.00
61697;BME280;47610;52.252;20.922;2023-01-25T12:43:17;101782.91;;;0.50;100.00
61697;BME280;47610;52.252;20.922;2023-01-25T12:48:28;101783.83;;;0.52;100.00
61697;BME280;47610;52.252;20.922;2023-01-25T12:53:38;101782.84;;;0.52;100.00
61697;BME280;47610;52.252;20.922;2023-01-25T12:58:45;101781.23;;;0.49;100.00
61697;BME280;47610;52.252;20.922;2023-01-25T13:04:04;101781.02;;;0.51;100.00
61697;BME280;47610;52.252;20.922;2023-01-25T13:09:17;101770.48;;;0.56;100.00
61697;BME280;47610;52.252;20.922;2023-01-25T13:14:37;101766.63;;;0.63;100.00
61697;BME280;47610;52.252;20.922;2023-01-25T13:19:43;101759.54;;;0.64;100.00
61697;BME280;47610;52.252;20.922;2023-01-25T13:25:17;101744.88;;;0.65;100.00
61697;BME280;47610;52.252;20.922;2023-01-25T13:30:32;101742.17;;;0.70;100.00
61697;BME280;47610;52.252;20.922;2023-01-25T13:35:42;101731.89;;;0.74;100.00
61697;BME280;47610;52.252;20.922;2023-01-25T13:41:03;101723.97;;;0.73;100.00
61697;BME280;47610;52.252;20.922;2023-01-25T13:46:12;101723.41;;;0.70;100.00
61697;BME280;47610;52.252;20.922;2023-01-25T13:51:18;101716.09;;;0.69;100.00
61697;BME280;47610;52.252;20.922;2023-01-25T13:56:35;101706.61;;;0.68;100.00
61697;BME280;47610;52.252;20.922;2023-01-25T14:01:38;101697.95;;;0.68;100.00
61697;BME280;47610;52.252;20.922;2023-01-25T14:06:42;101686.52;;;0.64;100.00
61697;BME280;47610;52.252;20.922;2023-01-25T14:11:54;101688.78;;;0.58;100.00
61697;BME280;47610;52.252;20.922;2023-01-25T14:17:15;101688.95;;;0.54;100.00
61697;BME280;47610;52.252;20.922;2023-01-25T14:22:23;101688.80;;;0.49;100.00
61697;BME280;47610;52.252;20.922;2023-01-25T14:27:27;101681.10;;;0.48;100.00
61697;BME280;47610;52.252;20.922;2023-01-25T14:32:31;101674.02;;;0.44;100.00
61697;BME280;47610;52.252;20.922;2023-01-25T14:37:34;101659.41;;;0.40;100.00
61697;BME280;47610;52.252;20.922;2023-01-25T14:42:45;101659.41;;;0.40;100.00
61697;BME280;47610;52.252;20.922;2023-01-25T14:47:47;101655.52;;;0.41;100.00
61697;BME280;47610;52.252;20.922;2023-01-25T14:58:15;101639.58;;;0.40;100.00
61697;BME280;47610;52.252;20.922;2023-01-25T15:03:19;101627.64;;;0.31;100.00
61697;BME280;47610;52.252;20.922;2023-01-25T15:08:37;101628.77;;;0.29;100.00
61697;BME280;47610;52.252;20.922;2023-01-25T15:13:41;101618.56;;;0.25;100.00
61697;BME280;47610;52.252;20.922;2023-01-25T15:18:46;101615.17;;;0.25;100.00
61697;BME280;47610;52.252;20.922;2023-01-25T15:23:54;101611.54;;;0.22;100.00
61697;BME280;47610;52.252;20.922;2023-01-25T15:29:00;101610.59;;;0.17;100.00
61697;BME280;47610;52.252;20.922;2023-01-25T15:34:04;101597.38;;;0.11;100.00
61697;BME280;47610;52.252;20.922;2023-01-25T15:39:11;101592.13;;;0.07;100.00
61697;BME280;47610;52.252;20.922;2023-01-25T15:44:15;101586.14;;;0.06;100.00
61697;BME280;47610;52.252;20.922;2023-01-25T15:49:22;101585.80;;;0.07;100.00
61697;BME280;47610;52.252;20.922;2023-01-25T15:54:28;101578.93;;;0.12;100.00
61697;BME280;47610;52.252;20.922;2023-01-25T15:59:31;101571.99;;;0.11;100.00
61697;BME280;47610;52.252;20.922;2023-01-25T16:04:36;101580.99;;;0.11;100.00
61697;BME280;47610;52.252;20.922;2023-01-25T16:09:38;101573.99;;;0.11;100.00
61697;BME280;47610;52.252;20.922;2023-01-25T16:14:42;101573.15;;;0.10;100.00
61697;BME280;47610;52.252;20.922;2023-01-25T16:19:47;101566.46;;;0.10;100.00
61697;BME280;47610;52.252;20.922;2023-01-25T16:24:50;101555.80;;;0.09;100.00
61697;BME280;47610;52.252;20.922;2023-01-25T16:29:55;101548.29;;;0.08;100.00
61697;BME280;47610;52.252;20.922;2023-01-25T16:34:59;101550.32;;;0.12;100.00
61697;BME280;47610;52.252;20.922;2023-01-25T16:40:02;101543.45;;;0.12;100.00
61697;BME280;47610;52.252;20.922;2023-01-25T16:45:09;101537.13;;;0.13;100.00
61697;BME280;47610;52.252;20.922;2023-01-25T16:50:16;101533.27;;;0.11;100.00
61697;BME280;47610;52.252;20.922;2023-01-25T16:55:21;101524.61;;;0.12;100.00
61697;BME280;47610;52.252;20.922;2023-01-25T17:00:26;101515.44;;;0.11;100.00
61697;BME280;47610;52.252;20.922;2023-01-25T17:05:28;101492.17;;;0.03;100.00
61697;BME280;47610;52.252;20.922;2023-01-25T17:18:16;101496.80;;;0.15;100.00
61697;BME280;47610;52.252;20.922;2023-01-25T17:23:20;101493.48;;;0.12;100.00
61697;BME280;47610;52.252;20.922;2023-01-25T17:28:23;101486.30;;;0.12;100.00
61697;BME280;47610;52.252;20.922;2023-01-25T17:33:28;101481.48;;;0.13;100.00
61697;BME280;47610;52.252;20.922;2023-01-25T17:38:32;101470.73;;;0.13;100.00
61697;BME280;47610;52.252;20.922;2023-01-25T17:43:35;101472.04;;;0.14;100.00
61697;BME280;47610;52.252;20.922;2023-01-25T17:48:40;101467.80;;;0.17;100.00
61697;BME280;47610;52.252;20.922;2023-01-25T17:53:45;101464.54;;;0.20;100.00
61697;BME280;47610;52.252;20.922;2023-01-25T17:58:50;101462.72;;;0.24;100.00
61697;BME280;47610;52.252;20.922;2023-01-25T18:03:55;101443.66;;;0.23;100.00
61697;BME280;47610;52.252;20.922;2023-01-25T18:08:58;101438.36;;;0.22;100.00
61697;BME280;47610;52.252;20.922;2023-01-25T18:14:04;101438.18;;;0.22;100.00
61697;BME280;47610;52.252;20.922;2023-01-25T18:19:09;101436.28;;;0.23;100.00
61697;BME280;47610;52.252;20.922;2023-01-25T18:24:25;101430.13;;;0.23;100.00
61697;BME280;47610;52.252;20.922;2023-01-25T18:29:39;101436.71;;;0.20;100.00
61697;BME280;47610;52.252;20.922;2023-01-25T18:34:52;101438.59;;;0.21;100.00
61697;BME280;47610;52.252;20.922;2023-01-25T18:39:57;101434.17;;;0.24;100.00
61697;BME280;47610;52.252;20.922;2023-01-25T18:45:01;101431.86;;;0.27;100.00
61697;BME280;47610;52.252;20.922;2023-01-25T18:58:14;101424.92;;;0.30;100.00
61697;BME280;47610;52.252;20.922;2023-01-25T19:03:19;101427.27;;;0.31;100.00
61697;BME280;47610;52.252;20.922;2023-01-25T19:08:23;101426.08;;;0.30;100.00
61697;BME280;47610;52.252;20.922;2023-01-25T19:13:28;101421.42;;;0.28;100.00
61697;BME280;47610;52.252;20.922;2023-01-25T19:18:38;101412.20;;;0.28;100.00
61697;BME280;47610;52.252;20.922;2023-01-25T19:23:45;101406.95;;;0.30;100.00
61697;BME280;47610;52.252;20.922;2023-01-25T19:28:49;101392.71;;;0.28;100.00
61697;BME280;47610;52.252;20.922;2023-01-25T19:33:56;101388.02;;;0.29;100.00
61697;BME280;47610;52.252;20.922;2023-01-25T19:39:01;101378.15;;;0.29;100.00
61697;BME280;47610;52.252;20.922;2023-01-25T19:44:06;101383.48;;;0.28;100.00
61697;BME280;47610;52.252;20.922;2023-01-25T19:49:10;101384.35;;;0.26;100.00
61697;BME280;47610;52.252;20.922;2023-01-25T19:54:16;101384.24;;;0.25;100.00
61697;BME280;47610;52.252;20.922;2023-01-25T19:59:21;101370.29;;;0.22;100.00
61697;BME280;47610;52.252;20.922;2023-01-25T20:04:26;101360.19;;;0.16;100.00
61697;BME280;47610;52.252;20.922;2023-01-25T20:09:31;101346.96;;;0.10;100.00
61697;BME280;47610;52.252;20.922;2023-01-25T20:14:35;101337.90;;;0.03;100.00
61697;BME280;47610;52.252;20.922;2023-01-25T20:19:39;101336.25;;;0.03;100.00
61697;BME280;47610;52.252;20.922;2023-01-25T20:24:43;101329.91;;;0.04;100.00
61697;BME280;47610;52.252;20.922;2023-01-25T20:29:47;101332.77;;;-0.01;100.00
61697;BME280;47610;52.252;20.922;2023-01-25T20:34:51;101325.75;;;-0.01;100.00
61697;BME280;47610;52.252;20.922;2023-01-25T20:39:55;101317.57;;;-0.00;100.00
61697;BME280;47610;52.252;20.922;2023-01-25T20:45:00;101315.53;;;-0.02;100.00
61697;BME280;47610;52.252;20.922;2023-01-25T20:50:05;101307.00;;;-0.07;100.00
61697;BME280;47610;52.252;20.922;2023-01-25T20:55:10;101307.95;;;0.00;100.00
61697;BME280;47610;52.252;20.922;2023-01-25T21:00:17;101305.67;;;0.06;100.00
61697;BME280;47610;52.252;20.922;2023-01-25T21:05:20;101303.23;;;0.10;100.00
61697;BME280;47610;52.252;20.922;2023-01-25T21:17:33;101303.92;;;0.25;100.00
61697;BME280;47610;52.252;20.922;2023-01-25T21:22:38;101295.61;;;0.26;100.00
61697;BME280;47610;52.252;20.922;2023-01-25T21:27:41;101292.27;;;0.29;100.00
61697;BME280;47610;52.252;20.922;2023-01-25T21:32:44;101286.08;;;0.32;100.00
61697;BME280;47610;52.252;20.922;2023-01-25T21:37:48;101276.95;;;0.33;100.00
61697;BME280;47610;52.252;20.922;2023-01-25T21:42:52;101274.19;;;0.32;100.00
61697;BME280;47610;52.252;20.922;2023-01-25T21:47:59;101281.09;;;0.31;100.00
61697;BME280;47610;52.252;20.922;2023-01-25T21:53:04;101281.45;;;0.30;100.00
61697;BME280;47610;52.252;20.922;2023-01-25T21:58:07;101282.64;;;0.31;100.00
61697;BME280;47610;52.252;20.922;2023-01-25T22:03:10;101280.10;;;0.32;100.00
61697;BME280;47610;52.252;20.922;2023-01-25T22:08:14;101276.02;;;0.35;100.00
61697;BME280;47610;52.252;20.922;2023-01-25T22:13:17;101274.59;;;0.37;100.00
61697;BME280;47610;52.252;20.922;2023-01-25T22:18:20;101266.15;;;0.40;100.00
61697;BME280;47610;52.252;20.922;2023-01-25T22:23:26;101262.96;;;0.42;100.00
61697;BME280;47610;52.252;20.922;2023-01-25T22:28:33;101262.75;;;0.42;100.00
61697;BME280;47610;52.252;20.922;2023-01-25T22:33:37;101258.89;;;0.40;100.00
61697;BME280;47610;52.252;20.922;2023-01-25T22:38:42;101249.25;;;0.39;100.00
61697;BME280;47610;52.252;20.922;2023-01-25T22:43:47;101245.50;;;0.33;100.00
61697;BME280;47610;52.252;20.922;2023-01-25T22:48:50;101242.68;;;0.28;100.00
61697;BME280;47610;52.252;20.922;2023-01-25T22:53:56;101236.52;;;0.28;100.00
61697;BME280;47610;52.252;20.922;2023-01-25T22:59:00;101241.63;;;0.31;100.00
61697;BME280;47610;52.252;20.922;2023-01-25T23:04:05;101235.52;;;0.33;100.00
61697;BME280;47610;52.252;20.922;2023-01-25T23:09:08;101224.85;;;0.34;100.00
61697;BME280;47610;52.252;20.922;2023-01-25T23:14:13;101217.03;;;0.30;100.00
61697;BME280;47610;52.252;20.922;2023-01-25T23:19:16;101206.88;;;0.27;100.00
61697;BME280;47610;52.252;20.922;2023-01-25T23:24:20;101201.89;;;0.24;100.00
61697;BME280;47610;52.252;20.922;2023-01-25T23:37:40;101180.32;;;0.23;100.00
61697;BME280;47610;52.252;20.922;2023-01-25T23:42:43;101178.59;;;0.17;100.00
61697;BME280;47610;52.252;20.922;2023-01-25T23:47:47;101170.19;;;0.18;100.00
61697;BME280;47610;52.252;20.922;2023-01-25T23:52:51;101161.08;;;0.22;100.00
61697;BME280;47610;52.252;20.922;2023-01-25T23:57:55;101162.45;;;0.26;100.00
